Ashiya Air Base, Japan

9:15 AM JST on July 13, 2014 (GMT +0900)
Akama Station(JR KYUSHU RAILWAY) (IFUKUOKA3) Elev 33 ft | 33.80 °N, 130.57 °E | Change Station

Current weather conditions updated 3 seconds ago

Mostly Cloudy
Mostly Cloudy
80.2 °F
Feels Like 86 °F
N
3.5
Wind Variable Wind from WSW
Gusts 3.5 mph

Today is forecast to be Much Cooler than yesterday. Showers and thunderstorms.

Today
High -- | Low -- °F
--% Chance of Precip.
Yesterday
High -- | Low -- °F
Precip. -- in
5:15 AM 7:29 PM
Full, 100% visible
Pressure 29.56 in
Visibility 6.2 miles
Clouds Few 500 ft
Scattered Clouds 1500 ft
Mostly Cloudy 2500 ft
Heat Index 86 °F
Dew Point 77 °F
Humidity 91%
Rainfall 1.71 in
Snow Depth Not available.
UV 0 out of 12
Pollen Not available.
Air Quality Not available.
Flu Activity Not available.
METAR RJFR 130000Z 16006KT 9999 FEW005 SCT015 BKN025 24/22 Q1001

More Conditions Fewer Conditions

Pressure 29.56 in
Visibility 6.2 miles
Clouds Few 500 ft
Scattered Clouds 1500 ft
Mostly Cloudy 2500 ft
Heat Index 86 °F
Dew Point 77 °F
Humidity 91%
Rainfall 1.71 in
Snow Depth Not available.
UV 0 out of 12
Pollen Not available.
Air Quality Not available.
Flu Activity Not available.
METAR RJFR 130000Z 16006KT 9999 FEW005 SCT015 BKN025 24/22 Q1001

More Conditions Fewer Conditions

10-Day Weather Forecast

Almanac

Astronomy

Jul. 13, 2014 Rise Set
Actual Time 5:15 AM JST 7:29 PM JST
Civil Twilight 4:47 AM JST 7:58 PM JST
Nautical Twilight 4:12 AM JST 8:33 PM JST
Astronomical Twilight 3:34 AM JST 9:11 PM JST
Moon 7:56 PM JST 5:57 AM JST
Length of Visible Light 15h 11m
Length of Day
14h 13m
Tomorrow will be 0m 59s shorter.
Full, 100% of the Moon is Illuminated
Jul 12
Full
Jul 18
Last Quarter
Jul 26
New
Aug 3
First Quarter
Aug 10
Full

Yesterday's Extremes

Country Highs Country Lows

Community

WunderPhotos

Upload Photos

1,733,008 photos uploaded!

WunderBlogs® & News

Nearby

Snow Depth

Not available.

Earthquake Activity

City Distance Mag. Time & Date
No recent earthquake activity has been reported nearby.
Minimum magnitude displayed is 2.5.

Coastal Water Temperatures

Place Temperature
No Stations Reporting

Nearby Weather Stations

Station Location Temp. Heat Index Dew Point Humidity Wind Precip. Elev Updated Type
Akama Station(JR KYUSHU RAILWAY), Munakata 80.2 °F 86 °F 77 °F 91% WSW  at  3.5 mph 0.00 in / hr 33 ft 9:15 AM JST Rapid Fire

Show More Stations Show Fewer Stations